Main page
METAR-TAF:

METAR-TAF

Airports :

Cascais Municipal Aerodrome

Cascais, Portugal

latitude: 38-43-32N, longitude: 009-21-19W, elevation: 99 m

Current weather observation

The report was made 4 hours and 6 minutes ago, at 20:00 UTC
Wind 16 kt from the North
Temperature 25°C
Humidity 54%
Pressure 1016 hPa
Visibility 10 km or more
no clouds below 1500 m and no cumulonimbus

METAR: LPCS 052000Z 01016KT CAVOK 25/15 Q1016

Time: 01:06 (00:06 UTC)

Forecast

The report was made 5 hours and 49 minutes ago, at 18:17 UTC
Forecast valid from 05 at 18 UTC to 05 at 24 UTC
Wind 17 kt from the North
Visibility 10 km or more
no clouds below 1500 m and no cumulonimbus
Temporary
from 05 at 18 UTC to 05 at 21 UTC
Wind 20 kt from the North with gusts up to 30 kt
Becoming
from 05 at 21 UTC to 05 at 24 UTC
Wind 10 kt from the North

TAF: LPCS 051817Z 0518/0524 36017KT CAVOK TEMPO 0518/0521 35020G30KT BECMG 0521/0524 35010KT

Weather observations and forecasts of more than 4000 airports (METAR and TAF reports).

The available stations are represented by yellow and red dots on the map.

Hover mouse over dot to see the name of the station.

Then click to see weather observations and forecasts.

To change the map : click on the green buttons with a black cross to zoom in, on the green button with a dash to zoom out, or on the green arrows for adjacent maps.


METAR-TAF: